Česky Dansk Deutsch English Español Suomi Français Magyar Italiano Nederlands norsk Polski Português svenska Türkçe

 

Het Weer

Grenoble / St. Geoirs (Frankrijk)

01:30, 23 augustus 2016 (GMT)

NWNNE
WE
SWSSE
Home            
Grenoble / St. Geoirs Lyon / Satolas Lyon / Bron Chambery / Aix-Les-Bains Amberieu St-Etienne Boutheon Montelimar Macon Geneve-Cointrin Le Puy Orange St-Auban-Sur-Durance Saint-Yan Lausanne Mende / Brenoux Vichy Clermont-Ferrand Sion Torino / Caselle Nimes / Courbessac Dole Tavaux Torino / Bric Della Croce Nimes / Garons

Om een weerknop op uw website of weblog te plaatsen, copieer onderstaande code en plak die in uw pagina. In het eerste vakje staat HTML-code, in het tweede vakje UBB-code.


Add to Google

Details

Wind speed:2 bf, 5 kn, 2.6 m/s, 5.8 miles/h, 9.3 km/h
Wind direction:SE, 130°
Visibility:Greater than 10000 m, 10 km, 32800 ft, 6.2 miles
Clouds:CAVOC
Temperature:12°C, 54°F
Dew-point:12°C, 54°F
Atmospheric pressure:1026 hPa, 769.6 mmHg, 30.30 inHg, 1.013 atm
Relative humidity:100.0 %
METAR:LFLS 230130Z AUTO 13005KT CAVOK 12/12 Q1026

Snelkoppelingen

Actuele weersinformatie van de hele wereld. Voeg locaties toe met het plus (+) symbool. Deze snelkoppelingen kunnen worden toegevoegd aan Google.

Lid van de Technetium groep

website free tracking
StatCounter NetStat W3C Validator

28-05-2022 12:50:16
astro.technetium.be money.technetium.be phote.technetium.be tafeltennistafel.technetium.be www.ligfiets.net